Glencoe, Minnesota
Current Conditions -  °F | °C
As of 8:54 PM on Friday 21 Nov 2014 (Local Time) from KGYL Reporting Station
Clear Clear  
Wind Chill: 19°   Ceiling: Unl
Heat Index: 29°   Visibility: 10mi
Dew Point: 25°   Wind: 12mph
Humidity: 84%   Direction: 180°S
Pressure: 29.88"   Gusts: 18mph
Location:  44.77°N, 94.15°W
Report Text: KGYL 220254Z AUTO 18010G16KT 10SM CLR M02/M04 A2988 RMK AO2 T10161040
Loading
Personal Weather Stations






























Interactive Weather Map New forecast layout! Learn more

10-Day Weather Forecast

Advertisements
Track Severe Weather on mobile